Observation data for Hereford on 12/09/2018      Previous  Date       Current Mesonet Observations  Soil Data  Daily Summary Page  Observations in Plain Language
KHES 090600Z 30003KT M05/M07 A3028 RMK A01 T10501067  RH  088%=      5-min Rain = 0
KHES 090605Z 30003KT M05/M07 A3028 RMK A01 T10491066  RH  088%=      5-min Rain = 0
KHES 090610Z 29003KT M05/M07 A3028 RMK A01 T10491066  RH  088%=      5-min Rain = 0
KHES 090615Z 30003KT M05/M07 A3028 RMK A01 T10501067  RH  088%=      5-min Rain = 0
KHES 090620Z 31002KT M05/M07 A3028 RMK A01 T10501067  RH  088%=      5-min Rain = 0
KHES 090625Z 32002KT M05/M07 A3028 RMK A01 T10511068  RH  088%=      5-min Rain = 0
KHES 090630Z 31002KT M05/M07 A3028 RMK A01 T10511067  RH  088%=      5-min Rain = 0
KHES 090635Z 31002KT M05/M07 A3028 RMK A01 T10511067  RH  089%=      5-min Rain = 0
KHES 090640Z 30002KT M05/M07 A3028 RMK A01 T10491065  RH  089%=      5-min Rain = 0
KHES 090645Z 30002KT M05/M06 A3028 RMK A01 T10471062  RH  090%=      5-min Rain = 0
KHES 090650Z 29002KT M05/M06 A3028 RMK A01 T10471061  RH  090%=      5-min Rain = 0
KHES 090655Z 29001KT M05/M06 A3028 RMK A01 T10481062  RH  090%=      5-min Rain = 0
KHES 090700Z 26003KT M06/M07 A3028 RMK A01 T10551070  RH  089%=      5-min Rain = 0
KHES 090705Z 25003KT M06/M07 A3028 RMK A01 T10551069  RH  090%=      5-min Rain = 0
KHES 090710Z 26002KT M05/M07 A3028 RMK A01 T10531066  RH  091%=      5-min Rain = 0
KHES 090715Z 27001KT M05/M07 A3028 RMK A01 T10521065  RH  091%=      5-min Rain = 0
KHES 090720Z 30001KT M05/M06 A3027 RMK A01 T10501062  RH  091%=      5-min Rain = 0
KHES 090725Z 33001KT M05/M06 A3027 RMK A01 T10451057  RH  092%=      5-min Rain = 0
KHES 090730Z 33001KT M05/M07 A3027 RMK A01 T10531070  RH  088%=      5-min Rain = 0
KHES 090735Z 32001KT M06/M08 A3027 RMK A01 T10611075  RH  090%=      5-min Rain = 0
KHES 090740Z 33001KT M06/M07 A3027 RMK A01 T10571069  RH  091%=      5-min Rain = 0
KHES 090745Z 31002KT M06/M07 A3028 RMK A01 T10551067  RH  092%=      5-min Rain = 0
KHES 090750Z 31003KT M06/M07 A3028 RMK A01 T10551067  RH  092%=      5-min Rain = 0
KHES 090755Z 32002KT M06/M07 A3028 RMK A01 T10591071  RH  091%=      5-min Rain = 0
KHES 090800Z 33002KT M06/M08 A3028 RMK A01 T10641076  RH  091%=      5-min Rain = 0
KHES 090805Z 32002KT M07/M09 A3028 RMK A01 T10721085  RH  090%=      5-min Rain = 0
KHES 090810Z 32003KT M07/M08 A3028 RMK A01 T10691079  RH  093%=      5-min Rain = 0
KHES 090815Z 32002KT M06/M07 A3028 RMK A01 T10601068  RH  094%=      5-min Rain = 0
KHES 090820Z 32002KT M06/M07 A3028 RMK A01 T10581068  RH  093%=      5-min Rain = 0
KHES 090825Z 33002KT M06/M07 A3028 RMK A01 T10601071  RH  092%=      5-min Rain = 0
KHES 090830Z 35003KT M06/M07 A3028 RMK A01 T10601071  RH  092%=      5-min Rain = 0
KHES 090835Z 35003KT M06/M07 A3028 RMK A01 T10571067  RH  093%=      5-min Rain = 0
KHES 090840Z 00003KT M06/M08 A3028 RMK A01 T10631075  RH  091%=      5-min Rain = 0
KHES 090845Z 00003KT M07/M08 A3028 RMK A01 T10661078  RH  091%=      5-min Rain = 0
KHES 090850Z 36002KT M07/M09 A3028 RMK A01 T10741086  RH  091%=      5-min Rain = 0
KHES 090855Z 36002KT M07/M08 A3028 RMK A01 T10701080  RH  093%=      5-min Rain = 0
KHES 090900Z 35003KT M07/M09 A3028 RMK A01 T10741085  RH  092%=      5-min Rain = 0
KHES 090905Z 34003KT M07/M08 A3028 RMK A01 T10711080  RH  093%=      5-min Rain = 0
KHES 090910Z 34003KT M07/M08 A3028 RMK A01 T10701079  RH  093%=      5-min Rain = 0
KHES 090915Z 33002KT M08/M09 A3028 RMK A01 T10751086  RH  091%=      5-min Rain = 0
KHES 090920Z 34003KT M07/M09 A3028 RMK A01 T10741085  RH  092%=      5-min Rain = 0
KHES 090925Z 34002KT M07/M08 A3028 RMK A01 T10731084  RH  092%=      5-min Rain = 0
KHES 090930Z 34002KT M07/M08 A3028 RMK A01 T10681078  RH  093%=      5-min Rain = 0
KHES 090935Z 33003KT M07/M08 A3028 RMK A01 T10661076  RH  092%=      5-min Rain = 0
KHES 090940Z 34003KT M07/M08 A3028 RMK A01 T10661077  RH  092%=      5-min Rain = 0
KHES 090945Z 33002KT M07/M08 A3028 RMK A01 T10661077  RH  092%=      5-min Rain = 0
KHES 090950Z 32002KT M07/M08 A3029 RMK A01 T10711084  RH  090%=      5-min Rain = 0
KHES 090955Z 32003KT M07/M09 A3029 RMK A01 T10731085  RH  091%=      5-min Rain = 0
KHES 091000Z 32002KT M07/M08 A3029 RMK A01 T10721084  RH  091%=      5-min Rain = 0
KHES 091005Z 32002KT M07/M09 A3028 RMK A01 T10731085  RH  091%=      5-min Rain = 0
KHES 091010Z 32003KT M07/M08 A3028 RMK A01 T10711082  RH  091%=      5-min Rain = 0
KHES 091015Z 33004KT M07/M08 A3028 RMK A01 T10661076  RH  093%=      5-min Rain = 0
KHES 091020Z 34004KT M06/M08 A3028 RMK A01 T10631075  RH  092%=      5-min Rain = 0
KHES 091025Z 34004KT M07/M08 A3028 RMK A01 T10651078  RH  091%=      5-min Rain = 0
KHES 091030Z 35002KT M07/M08 A3028 RMK A01 T10651077  RH  091%=      5-min Rain = 0
KHES 091035Z 36002KT M07/M08 A3028 RMK A01 T10661079  RH  091%=      5-min Rain = 0
KHES 091040Z 00003KT M07/M08 A3028 RMK A01 T10671079  RH  091%=      5-min Rain = 0
KHES 091045Z 36003KT M07/M08 A3028 RMK A01 T10661078  RH  091%=      5-min Rain = 0
KHES 091050Z 36003KT M07/M08 A3028 RMK A01 T10651076  RH  091%=      5-min Rain = 0
KHES 091055Z 35003KT M06/M08 A3028 RMK A01 T10641075  RH  092%=      5-min Rain = 0
KHES 091100Z 35003KT M06/M07 A3028 RMK A01 T10611072  RH  092%=      5-min Rain = 0
KHES 091105Z 34002KT M06/M07 A3028 RMK A01 T10591070  RH  092%=      5-min Rain = 0
KHES 091110Z 28002KT M06/M07 A3028 RMK A01 T10601072  RH  092%=      5-min Rain = 0
KHES 091115Z 24002KT M07/M08 A3028 RMK A01 T10691082  RH  090%=      5-min Rain = 0
KHES 091120Z 25003KT M07/M08 A3028 RMK A01 T10701081  RH  092%=      5-min Rain = 0
KHES 091125Z 25004KT M07/M08 A3028 RMK A01 T10701081  RH  092%=      5-min Rain = 0
KHES 091130Z 25003KT M08/M09 A3027 RMK A01 T10771090  RH  090%=      5-min Rain = 0
KHES 091135Z 25004KT M08/M09 A3028 RMK A01 T10771089  RH  091%=      5-min Rain = 0
KHES 091140Z 25005KT M08/M09 A3028 RMK A01 T10801093  RH  090%=      5-min Rain = 0
KHES 091145Z 25005KT M08/M09 A3028 RMK A01 T10811094  RH  090%=      5-min Rain = 0
KHES 091150Z 27004KT M08/M10 A3028 RMK A01 T10831095  RH  090%=      5-min Rain = 0
KHES 091155Z 27004KT M08/M10 A3028 RMK A01 T10831096  RH  090%=      5-min Rain = 0
KHES 091200Z 27005KT M08/M10 A3028 RMK A01 T10831095  RH  090%=      5-min Rain = 0
KHES 091205Z 27004KT M08/M10 A3029 RMK A01 T10831096  RH  090%=      5-min Rain = 0
KHES 091210Z 26004KT M08/M10 A3029 RMK A01 T10841097  RH  090%=      5-min Rain = 0
KHES 091215Z 27004KT M09/M10 A3029 RMK A01 T10851098  RH  090%=      5-min Rain = 0
KHES 091220Z 27003KT M09/M10 A3029 RMK A01 T10851098  RH  090%=      5-min Rain = 0
KHES 091225Z 27004KT M08/M10 A3029 RMK A01 T10841097  RH  090%=      5-min Rain = 0
KHES 091230Z 28005KT M09/M10 A303 RMK A01 T10851099  RH  090%=      5-min Rain = 0
KHES 091235Z 30006KT M09/M10 A303 RMK A01 T10861100  RH  090%=      5-min Rain = 0
KHES 091240Z 31005KT M09/M10 A303 RMK A01 T10851098  RH  090%=      5-min Rain = 0
KHES 091245Z 32006KT M08/M09 A303 RMK A01 T10781088  RH  092%=      5-min Rain = 0
KHES 091250Z 32005KT M07/M08 A303 RMK A01 T10671077  RH  093%=      5-min Rain = 0
KHES 091255Z 32005KT M07/M08 A303 RMK A01 T10671080  RH  091%=      5-min Rain = 0
KHES 091300Z 32005KT M07/M08 A303 RMK A01 T10701084  RH  090%=      5-min Rain = 0
KHES 091305Z 33005KT M07/M09 A303 RMK A01 T10731087  RH  090%=      5-min Rain = 0
KHES 091310Z 34005KT M07/M09 A3031 RMK A01 T10741087  RH  090%=      5-min Rain = 0
KHES 091315Z 34005KT M07/M08 A3031 RMK A01 T10711084  RH  091%=      5-min Rain = 0
KHES 091320Z 35004KT M07/M09 A3031 RMK A01 T10721086  RH  090%=      5-min Rain = 0
KHES 091325Z 35004KT M07/M09 A3031 RMK A01 T10741088  RH  090%=      5-min Rain = 0
KHES 091330Z 35004KT M08/M09 A3032 RMK A01 T10751088  RH  090%=      5-min Rain = 0
KHES 091335Z 34004KT M07/M09 A3032 RMK A01 T10731086  RH  091%=      5-min Rain = 0
KHES 091340Z 32006KT M08/M09 A3032 RMK A01 T10791093  RH  089%=      5-min Rain = 0
KHES 091345Z 31007KT M07/M08 A3032 RMK A01 T10701079  RH  093%=      5-min Rain = 0
KHES 091350Z 31007KT M06/M07 A3033 RMK A01 T10631073  RH  092%=      5-min Rain = 0
KHES 091355Z 31006KT M07/M08 A3033 RMK A01 T10651079  RH  090%=      5-min Rain = 0
KHES 091400Z 31004KT M07/M08 A3033 RMK A01 T10691083  RH  090%=      5-min Rain = 0
KHES 091405Z 30003KT M07/M08 A3033 RMK A01 T10711084  RH  090%=      5-min Rain = 0
KHES 091410Z 31004KT M07/M08 A3033 RMK A01 T10671080  RH  091%=      5-min Rain = 0
KHES 091415Z 32002KT M06/M08 A3033 RMK A01 T10631075  RH  091%=      5-min Rain = 0
KHES 091420Z 31002KT M06/M07 A3033 RMK A01 T10591072  RH  091%=      5-min Rain = 0
KHES 091425Z 29001KT M06/M07 A3033 RMK A01 T10561070  RH  090%=      5-min Rain = 0
KHES 091430Z 29003KT M05/M07 A3033 RMK A01 T10521066  RH  090%=      5-min Rain = 0
KHES 091435Z 29004KT M04/M06 A3034 RMK A01 T10441058  RH  091%=      5-min Rain = 0
KHES 091440Z 29003KT M04/M06 A3034 RMK A01 T10401055  RH  090%=      5-min Rain = 0
KHES 091445Z 28002KT M04/M05 A3034 RMK A01 T10371053  RH  089%=      5-min Rain = 0
KHES 091450Z 28002KT M04/M05 A3034 RMK A01 T10361053  RH  088%=      5-min Rain = 0
KHES 091455Z 29003KT M03/M05 A3034 RMK A01 T10331051  RH  087%=      5-min Rain = 0
KHES 091500Z 28004KT M03/M05 A3035 RMK A01 T10291049  RH  087%=      5-min Rain = 0
KHES 091505Z 29005KT M03/M05 A3035 RMK A01 T10271048  RH  086%=      5-min Rain = 0
KHES 091510Z 30005KT M03/M05 A3035 RMK A01 T10251047  RH  085%=      5-min Rain = 0
KHES 091515Z 30005KT M02/M05 A3035 RMK A01 T10231046  RH  085%=      5-min Rain = 0
KHES 091520Z 31004KT M02/M04 A3035 RMK A01 T10201043  RH  084%=      5-min Rain = 0
KHES 091525Z 32003KT M02/M04 A3035 RMK A01 T10161041  RH  083%=      5-min Rain = 0
KHES 091530Z 32004KT M01/M04 A3035 RMK A01 T10111039  RH  082%=      5-min Rain = 0
KHES 091535Z 32003KT M01/M04 A3036 RMK A01 T10081039  RH  080%=      5-min Rain = 0
KHES 091540Z 33003KT M01/M04 A3036 RMK A01 T10051038  RH  079%=      5-min Rain = 0
KHES 091545Z 33002KT M00/M04 A3036 RMK A01 T10021037  RH  077%=      5-min Rain = 0
KHES 091550Z 00003KT 00/M04 A3036 RMK A01 T00011038  RH  075%=      5-min Rain = 0
KHES 091555Z 36002KT 00/M04 A3036 RMK A01 T00031040  RH  073%=      5-min Rain = 0
KHES 091600Z 34003KT 01/M04 A3036 RMK A01 T00061040  RH  072%=      5-min Rain = 0
KHES 091605Z 35003KT 01/M04 A3036 RMK A01 T00081042  RH  069%=      5-min Rain = 0
KHES 091610Z 35003KT 01/M04 A3036 RMK A01 T00111040  RH  069%=      5-min Rain = 0
KHES 091615Z 01003KT 02/M04 A3037 RMK A01 T00151039  RH  068%=      5-min Rain = 0
KHES 091620Z 36002KT 02/M04 A3037 RMK A01 T00201036  RH  067%=      5-min Rain = 0
KHES 091625Z 35003KT 02/M04 A3036 RMK A01 T00241038  RH  064%=      5-min Rain = 0
KHES 091630Z 36003KT 03/M04 A3036 RMK A01 T00251039  RH  063%=      5-min Rain = 0
KHES 091635Z 00004KT 03/M03 A3037 RMK A01 T00301034  RH  063%=      5-min Rain = 0
KHES 091640Z 33003KT 03/M04 A3037 RMK A01 T00341036  RH  060%=      5-min Rain = 0
KHES 091645Z 34003KT 04/M04 A3037 RMK A01 T00361038  RH  059%=      5-min Rain = 0
KHES 091650Z 34001KT 04/M04 A3037 RMK A01 T00381037  RH  059%=      5-min Rain = 0
KHES 091655Z 01005KT 04/M04 A3037 RMK A01 T00401040  RH  056%=      5-min Rain = 0
KHES 091700Z 00003KT 04/M04 A3037 RMK A01 T00401041  RH  056%=      5-min Rain = 0
KHES 091705Z 01004KT 04/M04 A3037 RMK A01 T00421042  RH  054%=      5-min Rain = 0
KHES 091710Z 01005KT 04/M04 A3037 RMK A01 T00431043  RH  054%=      5-min Rain = 0
KHES 091715Z 01004KT 05/M04 A3037 RMK A01 T00451041  RH  054%=      5-min Rain = 0
KHES 091720Z 00003KT 05/M04 A3037 RMK A01 T00471042  RH  053%=      5-min Rain = 0
KHES 091725Z 01005KT 05/M04 A3036 RMK A01 T00501041  RH  052%=      5-min Rain = 0
KHES 091730Z 35004KT 05/M04 A3037 RMK A01 T00501040  RH  052%=      5-min Rain = 0
KHES 091735Z 02005KT 05/M04 A3037 RMK A01 T00541038  RH  052%=      5-min Rain = 0
KHES 091740Z 01004KT 06/M04 A3036 RMK A01 T00551038  RH  051%=      5-min Rain = 0
KHES 091745Z 02005KT 06/M04 A3036 RMK A01 T00571037  RH  051%=      5-min Rain = 0
KHES 091750Z 01004KT 06/M04 A3036 RMK A01 T00591037  RH  050%=      5-min Rain = 0
KHES 091755Z 01004KT 06/M04 A3036 RMK A01 T00591038  RH  050%=      5-min Rain = 0
KHES 091800Z 03003KT 06/M04 A3035 RMK A01 T00621036  RH  050%=      5-min Rain = 0
KHES 091805Z 02004KT 06/M04 A3035 RMK A01 T00621038  RH  049%=      5-min Rain = 0
KHES 091810Z 00003KT 06/M04 A3035 RMK A01 T00641037  RH  049%=      5-min Rain = 0
KHES 091815Z 02005KT 07/M04 A3035 RMK A01 T00651037  RH  048%=      5-min Rain = 0
KHES 091820Z 01006KT 07/M04 A3035 RMK A01 T00661037  RH  048%=      5-min Rain = 0
KHES 091825Z 35002KT 07/M04 A3035 RMK A01 T00671036  RH  048%=      5-min Rain = 0
KHES 091830Z 01004G9KT 07/M04 A3034 RMK A01 T00731035  RH  047%=      5-min Rain = 0
KHES 091835Z 01005KT 07/M04 A3034 RMK A01 T00731037  RH  046%=      5-min Rain = 0
KHES 091840Z 00004G9KT 07/M04 A3034 RMK A01 T00721041  RH  045%=      5-min Rain = 0
KHES 091845Z 01003KT 08/M04 A3033 RMK A01 T00751038  RH  045%=      5-min Rain = 0
KHES 091850Z 34003G8KT 08/M04 A3033 RMK A01 T00771038  RH  044%=      5-min Rain = 0
KHES 091855Z 01004G9KT 08/M04 A3033 RMK A01 T00761044  RH  042%=      5-min Rain = 0
KHES 091900Z 03005KT 08/M05 A3033 RMK A01 T00761045  RH  042%=      5-min Rain = 0
KHES 091905Z 04004KT 08/M05 A3032 RMK A01 T00761045  RH  042%=      5-min Rain = 0
KHES 091910Z 01005KT 08/M05 A3032 RMK A01 T00801045  RH  041%=      5-min Rain = 0
KHES 091915Z 04005KT 08/M05 A3032 RMK A01 T00801045  RH  041%=      5-min Rain = 0
KHES 091920Z 04006G11KT 08/M05 A3032 RMK A01 T00811048  RH  040%=      5-min Rain = 0
KHES 091925Z 01005KT 08/M05 A3032 RMK A01 T00811051  RH  039%=      5-min Rain = 0
KHES 091930Z 36004KT 08/M05 A3032 RMK A01 T00811052  RH  039%=      5-min Rain = 0
KHES 091935Z 33003G8KT 08/M05 A3032 RMK A01 T00841054  RH  037%=      5-min Rain = 0
KHES 091940Z 03006KT 08/M05 A3032 RMK A01 T00841052  RH  038%=      5-min Rain = 0
KHES 091945Z 05005KT 08/M05 A3032 RMK A01 T00831052  RH  038%=      5-min Rain = 0
KHES 091950Z 06004KT 08/M06 A3032 RMK A01 T00831056  RH  037%=      5-min Rain = 0
KHES 091955Z 01007KT 09/M05 A3031 RMK A01 T00851053  RH  037%=      5-min Rain = 0
KHES 092000Z 01004KT 09/M06 A3032 RMK A01 T00861055  RH  037%=      5-min Rain = 0
KHES 092005Z 01003KT 09/M05 A3031 RMK A01 T00881053  RH  037%=      5-min Rain = 0
KHES 092010Z 01002KT 09/M05 A3031 RMK A01 T00921049  RH  037%=      5-min Rain = 0
KHES 092015Z 03007KT 09/M05 A3031 RMK A01 T00911052  RH  036%=      5-min Rain = 0
KHES 092020Z 04006KT 09/M05 A3031 RMK A01 T00871054  RH  036%=      5-min Rain = 0
KHES 092025Z 05004KT 09/M05 A303 RMK A01 T00871053  RH  037%=      5-min Rain = 0
KHES 092030Z 06005KT 09/M06 A303 RMK A01 T00891058  RH  035%=      5-min Rain = 0
KHES 092035Z 03004KT 09/M06 A303 RMK A01 T00891058  RH  035%=      5-min Rain = 0
KHES 092040Z 34004KT 09/M06 A303 RMK A01 T00921060  RH  034%=      5-min Rain = 0
KHES 092045Z 36004KT 09/M06 A303 RMK A01 T00911062  RH  033%=      5-min Rain = 0
KHES 092050Z 03005KT 09/M06 A303 RMK A01 T00911060  RH  034%=      5-min Rain = 0
KHES 092055Z 03006KT 09/M06 A303 RMK A01 T00921060  RH  034%=      5-min Rain = 0
KHES 092100Z 01007KT 09/M06 A303 RMK A01 T00911062  RH  033%=      5-min Rain = 0
KHES 092105Z 00003KT 09/M06 A303 RMK A01 T00901064  RH  033%=      5-min Rain = 0
KHES 092110Z 35003G8KT 09/M06 A3031 RMK A01 T00931064  RH  032%=      5-min Rain = 0
KHES 092115Z 01006KT 09/M07 A3031 RMK A01 T00911066  RH  032%=      5-min Rain = 0
KHES 092120Z 01005KT 09/M07 A3031 RMK A01 T00911066  RH  032%=      5-min Rain = 0
KHES 092125Z 36006KT 09/M07 A3031 RMK A01 T00931067  RH  032%=      5-min Rain = 0
KHES 092130Z 35006KT 09/M07 A3031 RMK A01 T00931068  RH  032%=      5-min Rain = 0
KHES 092135Z 02007KT 09/M07 A3031 RMK A01 T00901072  RH  031%=      5-min Rain = 0
KHES 092140Z 00004G9KT 09/M07 A3031 RMK A01 T00911073  RH  031%=      5-min Rain = 0
KHES 092145Z 35005KT 09/M07 A3031 RMK A01 T00911074  RH  030%=      5-min Rain = 0
KHES 092150Z 02006KT 09/M08 A3031 RMK A01 T00911076  RH  030%=      5-min Rain = 0
KHES 092155Z 01005KT 09/M08 A3031 RMK A01 T00911078  RH  029%=      5-min Rain = 0
KHES 092200Z 02004KT 09/M08 A3031 RMK A01 T00911078  RH  030%=      5-min Rain = 0
KHES 092205Z 02003KT 09/M07 A3031 RMK A01 T00921074  RH  030%=      5-min Rain = 0
KHES 092210Z 01004KT 09/M08 A303 RMK A01 T00931077  RH  029%=      5-min Rain = 0
KHES 092215Z 04005KT 09/M08 A303 RMK A01 T00911081  RH  029%=      5-min Rain = 0
KHES 092220Z 04003KT 09/M08 A303 RMK A01 T00911083  RH  028%=      5-min Rain = 0
KHES 092225Z 04003KT 09/M08 A303 RMK A01 T00921084  RH  028%=      5-min Rain = 0
KHES 092230Z 02004KT 09/M09 A303 RMK A01 T00891087  RH  028%=      5-min Rain = 0
KHES 092235Z 06001KT 09/M09 A303 RMK A01 T00911092  RH  026%=      5-min Rain = 0
KHES 092240Z 01003KT 09/M09 A303 RMK A01 T00921090  RH  027%=      5-min Rain = 0
KHES 092245Z 02003KT 09/M08 A3031 RMK A01 T00901084  RH  028%=      5-min Rain = 0
KHES 092250Z 01004KT 09/M08 A3031 RMK A01 T00871082  RH  029%=      5-min Rain = 0
KHES 092255Z 00004KT 09/M09 A3031 RMK A01 T00861087  RH  028%=      5-min Rain = 0
KHES 092300Z 35002KT 09/M09 A3031 RMK A01 T00851089  RH  028%=      5-min Rain = 0
KHES 092305Z 01003KT 09/M08 A3031 RMK A01 T00861083  RH  029%=      5-min Rain = 0
KHES 092310Z 02005KT 08/M08 A3031 RMK A01 T00801079  RH  031%=      5-min Rain = 0
KHES 092315Z 05005KT 08/M09 A3031 RMK A01 T00751085  RH  031%=      5-min Rain = 0
KHES 092320Z 06004KT 07/M09 A3031 RMK A01 T00721090  RH  030%=      5-min Rain = 0
KHES 092325Z 05004KT 07/M09 A3031 RMK A01 T00701094  RH  030%=      5-min Rain = 0
KHES 092330Z 06003KT 07/M10 A3031 RMK A01 T00691095  RH  030%=      5-min Rain = 0
KHES 092335Z 07003KT 07/M10 A3031 RMK A01 T00681095  RH  030%=      5-min Rain = 0
KHES 092340Z 06003KT 06/M10 A3031 RMK A01 T00641096  RH  031%=      5-min Rain = 0
KHES 092345Z 05004KT 06/M10 A3032 RMK A01 T00641096  RH  031%=      5-min Rain = 0
KHES 092350Z 04004KT 06/M10 A3032 RMK A01 T00631095  RH  031%=      5-min Rain = 0
KHES 092355Z 04004KT 05/M10 A3032 RMK A01 T00541097  RH  033%=      5-min Rain = 0
KHES 100000Z 04004KT 05/M10 A3033 RMK A01 T00471099  RH  034%=      5-min Rain = 0
KHES 100005Z 04005KT 05/M10 A3033 RMK A01 T00451101  RH  033%=      5-min Rain = 0
KHES 100010Z 04004KT 04/M10 A3033 RMK A01 T00421102  RH  034%=      5-min Rain = 0
KHES 100015Z 04004KT 04/M10 A3033 RMK A01 T00391102  RH  035%=      5-min Rain = 0
KHES 100020Z 05004KT 04/M10 A3033 RMK A01 T00371100  RH  036%=      5-min Rain = 0
KHES 100025Z 04003KT 04/M10 A3034 RMK A01 T00381100  RH  036%=      5-min Rain = 0
KHES 100030Z 04003KT 04/M10 A3034 RMK A01 T00351101  RH  036%=      5-min Rain = 0
KHES 100035Z 05003KT 03/M10 A3034 RMK A01 T00261101  RH  038%=      5-min Rain = 0
KHES 100040Z 06003KT 02/M10 A3034 RMK A01 T00221101  RH  040%=      5-min Rain = 0
KHES 100045Z 06003KT 02/M10 A3034 RMK A01 T00161103  RH  041%=      5-min Rain = 0
KHES 100050Z 06003KT 02/M10 A3034 RMK A01 T00151099  RH  042%=      5-min Rain = 0
KHES 100055Z 06003KT 02/M10 A3034 RMK A01 T00151097  RH  043%=      5-min Rain = 0
KHES 100100Z 06003KT 02/M10 A3035 RMK A01 T00151095  RH  044%=      5-min Rain = 0
KHES 100105Z 06002KT 02/M09 A3035 RMK A01 T00171094  RH  043%=      5-min Rain = 0
KHES 100110Z 05002KT 02/M09 A3035 RMK A01 T00181094  RH  043%=      5-min Rain = 0
KHES 100115Z 04002KT 02/M09 A3035 RMK A01 T00221093  RH  042%=      5-min Rain = 0
KHES 100120Z 04002KT 03/M09 A3035 RMK A01 T00261093  RH  041%=      5-min Rain = 0
KHES 100125Z 05002KT 03/M09 A3035 RMK A01 T00281094  RH  040%=      5-min Rain = 0
KHES 100130Z 06001KT 03/M10 A3035 RMK A01 T00281095  RH  040%=      5-min Rain = 0
KHES 100135Z 05001KT 03/M10 A3035 RMK A01 T00281095  RH  040%=      5-min Rain = 0
KHES 100140Z 03001KT 03/M10 A3035 RMK A01 T00281095  RH  040%=      5-min Rain = 0
KHES 100145Z 02002KT 03/M10 A3035 RMK A01 T00281096  RH  040%=      5-min Rain = 0
KHES 100150Z 36001KT 03/M10 A3035 RMK A01 T00271097  RH  039%=      5-min Rain = 0
KHES 100155Z 35000KT 03/M10 A3035 RMK A01 T00261098  RH  039%=      5-min Rain = 0
KHES 100200Z 35000KT 02/M10 A3035 RMK A01 T00231098  RH  040%=      5-min Rain = 0
KHES 100205Z 35001KT 02/M10 A3035 RMK A01 T00241100  RH  040%=      5-min Rain = 0
KHES 100210Z 35000KT 01/M10 A3035 RMK A01 T00111100  RH  043%=      5-min Rain = 0
KHES 100215Z 00000KT M01/M11 A3035 RMK A01 T10091106  RH  047%=      5-min Rain = 0
KHES 100220Z 35000KT M03/M10 A3036 RMK A01 T10251104  RH  055%=      5-min Rain = 0
KHES 100225Z 35001KT M01/M10 A3036 RMK A01 T10081095  RH  052%=      5-min Rain = 0
KHES 100230Z 35000KT M02/M10 A3036 RMK A01 T10201104  RH  053%=      5-min Rain = 0
KHES 100235Z 00000KT M03/M10 A3036 RMK A01 T10321100  RH  059%=      5-min Rain = 0
KHES 100240Z 35001KT M03/M10 A3036 RMK A01 T10331096  RH  062%=      5-min Rain = 0
KHES 100245Z 35001KT M04/M10 A3036 RMK A01 T10351096  RH  063%=      5-min Rain = 0
KHES 100250Z 34002KT M04/M10 A3036 RMK A01 T10351095  RH  063%=      5-min Rain = 0
KHES 100255Z 33002KT M04/M10 A3036 RMK A01 T10381097  RH  064%=      5-min Rain = 0
KHES 100300Z 33002KT M04/M09 A3036 RMK A01 T10371094  RH  064%=      5-min Rain = 0
KHES 100305Z 34002KT M04/M09 A3036 RMK A01 T10351093  RH  064%=      5-min Rain = 0
KHES 100310Z 35002KT M04/M10 A3036 RMK A01 T10381096  RH  064%=      5-min Rain = 0
KHES 100315Z 35002KT M04/M10 A3036 RMK A01 T10421099  RH  064%=      5-min Rain = 0
KHES 100320Z 00005KT M04/M10 A3036 RMK A01 T10401096  RH  065%=      5-min Rain = 0
KHES 100325Z 36004KT M03/M09 A3036 RMK A01 T10301092  RH  062%=      5-min Rain = 0
KHES 100330Z 01004KT M03/M10 A3036 RMK A01 T10301095  RH  060%=      5-min Rain = 0
KHES 100335Z 01003KT M03/M10 A3036 RMK A01 T10331097  RH  061%=      5-min Rain = 0
KHES 100340Z 00003KT M04/M10 A3036 RMK A01 T10371098  RH  062%=      5-min Rain = 0
KHES 100345Z 00003KT M03/M10 A3036 RMK A01 T10341096  RH  062%=      5-min Rain = 0
KHES 100350Z 34003KT M02/M09 A3036 RMK A01 T10191088  RH  059%=      5-min Rain = 0
KHES 100355Z 34003KT M01/M09 A3037 RMK A01 T10091092  RH  053%=      5-min Rain = 0
KHES 100400Z 35004KT M02/M10 A3036 RMK A01 T10181096  RH  055%=      5-min Rain = 0
KHES 100405Z 35005KT M02/M10 A3037 RMK A01 T10221095  RH  057%=      5-min Rain = 0
KHES 100410Z 36004KT M03/M09 A3037 RMK A01 T10271091  RH  061%=      5-min Rain = 0
KHES 100415Z 36003KT M03/M09 A3037 RMK A01 T10291091  RH  062%=      5-min Rain = 0
KHES 100420Z 34002KT M03/M09 A3036 RMK A01 T10311093  RH  062%=      5-min Rain = 0
KHES 100425Z 34002KT M03/M09 A3037 RMK A01 T10331093  RH  063%=      5-min Rain = 0
KHES 100430Z 33002KT M03/M09 A3037 RMK A01 T10311091  RH  063%=      5-min Rain = 0
KHES 100435Z 32001KT M03/M09 A3037 RMK A01 T10301092  RH  062%=      5-min Rain = 0
KHES 100440Z 27001KT M03/M10 A3037 RMK A01 T10311095  RH  061%=      5-min Rain = 0
KHES 100445Z 25002KT M04/M10 A3037 RMK A01 T10401099  RH  063%=      5-min Rain = 0
KHES 100450Z 26003KT M05/M10 A3037 RMK A01 T10491101  RH  066%=      5-min Rain = 0
KHES 100455Z 27003KT M05/M10 A3037 RMK A01 T10501099  RH  068%=      5-min Rain = 0
KHES 100500Z 26006KT M06/M10 A3037 RMK A01 T10561102  RH  070%=      5-min Rain = 0
KHES 100505Z 26008KT M05/M10 A3037 RMK A01 T10541096  RH  072%=      5-min Rain = 0
KHES 100510Z 25007KT M06/M10 A3037 RMK A01 T10551097  RH  072%=      5-min Rain = 0
KHES 100515Z 26006KT M06/M10 A3037 RMK A01 T10571100  RH  071%=      5-min Rain = 0
KHES 100520Z 27007KT M06/M10 A3037 RMK A01 T10591101  RH  072%=      5-min Rain = 0
KHES 100525Z 27008KT M06/M10 A3037 RMK A01 T10581098  RH  073%=      5-min Rain = 0
KHES 100530Z 26008KT M06/M10 A3037 RMK A01 T10551096  RH  073%=      5-min Rain = 0
KHES 100535Z 27006KT M06/M10 A3037 RMK A01 T10561098  RH  072%=      5-min Rain = 0
KHES 100540Z 27008KT M06/M10 A3037 RMK A01 T10561096  RH  073%=      5-min Rain = 0
KHES 100545Z 27007KT M05/M09 A3037 RMK A01 T10511093  RH  072%=      5-min Rain = 0
KHES 100550Z 27008KT M05/M09 A3037 RMK A01 T10501093  RH  071%=      5-min Rain = 0
KHES 100555Z 27008KT M05/M10 A3037 RMK A01 T10511095  RH  071%=      5-min Rain = 0

Page generated in 0.0608 seconds.